Strona główna
METAR-TAF:

METAR-TAF

Lotnisko :

Port lotniczy Yap

Yap, Mikronezja

Szerokość geograficzna: 09-29N, Długość geograficzna: 138-05E, wysokość: 28 m

Aktualna obserwacja pogody

Raport powstał 55 minut temu, godzina 18:53 UTC
Wiatr 3 kt z kierunków zmiennych
Temperatura 26°C
Wilgotność 89%
Ciśnienie 1009 hPa
Widzialność: 19.3 km
Rozproszone chmury na wysokości 1800 ft
Przerywane chmury na wysokości 30000 ft

METAR: PTYA 141853Z VRB03KT 12SM SCT018 BKN300 26/24 A2979 RMK SLP088 T02640236

czas: 05:48 (19:48 UTC)

Prognoza

Raport powstał 2 godziny i 13 minut temu, godzina 17:35 UTC
Prognoza ważna od 14 godzina 18 UTC do 15 godzina 18 UTC
Wiatr 8 kt od wschodnio-północny wschód
Widzialność: 10 km
Rozproszone chmury na wysokości 1800 ft

TAF: PTYA 141735Z 1418/1518 06008KT P6SM SCT018

Obserwacja i prognoza pogody dla ponad 4000 lotnisk (raport METAR i TAF).

Dostępne stacje oznaczono żółtymi i czerwonymi punktami na mapie.

Najedź kursorem aby zobaczyć nazwę stacji.

Kliknij aby zobaczyć obserwacje i prognozy pogody.

Aby zmienić mapę: kliknij na zielony przycisk z czarnym krzyżykiem, aby powiększyć; na zielony przycisk z myślnikiem, aby pomniejszyć; na zielone strzałki, aby przejść do map sąsiednich.


METAR-TAF: